Time;durP1;ratioP1;P1;durP2;ratioP2;P2;SDS_P1;SDS_P2;PMS_P1;PMS_P2;Temp;Humidity;BMP_temperature;BMP_pressure;BME280_temperature;BME280_humidity;BME280_pressure;Samples;Min_cycle;Max_cycle;Signal;HPM_P1;HPM_P2
2023/06/02 00:04:23;;;;;;;6.40;3.75;;;;;;;;;;10192245;29;20650;-80
2023/06/02 00:09:26;;;;;;;5.65;4.13;;;;;;;;;;10193382;29;20305;-80
2023/06/02 00:14:30;;;;;;;8.50;4.00;;;;;;;;;;10210310;29;20280;-80
2023/06/02 00:19:33;;;;;;;6.78;3.92;;;11.40;99.90;;;;;;10209719;29;20325;-80
2023/06/02 00:24:35;;;;;;;6.00;3.80;;;11.00;99.90;;;;;;10193203;29;20761;-80
2023/06/02 00:29:38;;;;;;;4.28;3.60;;;11.30;99.90;;;;;;10210528;29;20242;-80
2023/06/02 00:34:41;;;;;;;8.02;3.83;;;11.30;99.90;;;;;;10191360;29;20254;-80
2023/06/02 00:39:43;;;;;;;5.63;3.15;;;11.30;99.90;;;;;;10191163;29;20404;-80
2023/06/02 00:44:46;;;;;;;8.82;4.38;;;10.90;99.90;;;;;;10192956;29;20247;-80
2023/06/02 00:49:48;;;;;;;8.43;3.85;;;10.80;99.90;;;;;;10176852;29;20282;-80
2023/06/02 00:54:52;;;;;;;5.00;3.30;;;10.80;99.90;;;;;;10181422;29;20243;-80
2023/06/02 00:59:56;;;;;;;4.22;3.78;;;10.60;99.90;;;;;;10203901;29;20258;-80
2023/06/02 01:05:00;;;;;;;9.98;4.38;;;10.30;99.90;;;;;;10191988;29;20305;-80
2023/06/02 01:10:03;;;;;;;7.40;3.53;;;10.40;99.90;;;;;;10207429;29;20837;-80
2023/06/02 01:15:07;;;;;;;8.48;4.45;;;10.40;99.90;;;;;;10190941;29;20246;-80
2023/06/02 01:20:12;;;;;;;4.63;3.28;;;10.50;99.90;;;;;;10191081;29;20274;-80
2023/06/02 01:25:18;;;;;;;4.22;3.83;;;10.90;99.90;;;;;;10190677;29;20282;-80
2023/06/02 01:30:23;;;;;;;5.43;3.53;;;11.20;99.90;;;;;;10195122;29;20297;-80
2023/06/02 01:35:29;;;;;;;6.47;3.55;;;11.60;99.90;;;;;;10206728;29;20239;-80
2023/06/02 01:40:32;;;;;;;3.85;2.67;;;11.90;99.90;;;;;;10190228;29;20266;-80
2023/06/02 01:45:36;;;;;;;5.75;2.80;;;12.10;99.90;;;;;;10188646;29;20226;-80
2023/06/02 01:50:40;;;;;;;8.60;4.70;;;12.30;99.90;;;;;;10189247;29;20250;-80
2023/06/02 01:55:43;;;;;;;4.85;3.60;;;12.30;99.90;;;;;;10190092;29;20250;-80
2023/06/02 02:00:45;;;;;;;5.80;3.67;;;12.40;99.90;;;;;;10188786;29;20266;-80
2023/06/02 02:05:48;;;;;;;6.13;3.08;;;12.50;99.90;;;;;;10206022;29;20238;-80
2023/06/02 02:10:50;;;;;;;9.45;4.43;;;12.50;99.90;;;;;;10207959;29;20254;-79
2023/06/02 02:15:53;;;;;;;6.13;4.07;;;12.40;99.90;;;;;;10206632;29;20250;-79
2023/06/02 02:20:56;;;;;;;6.85;4.05;;;12.70;99.90;;;;;;10188062;29;20340;-79
2023/06/02 02:25:58;;;;;;;6.15;4.50;;;13.00;99.90;;;;;;10205058;29;20238;-79
2023/06/02 02:31:01;;;;;;;6.70;3.97;;;13.20;99.90;;;;;;10188595;29;20242;-79
2023/06/02 02:36:05;;;;;;;5.05;3.83;;;13.20;99.90;;;;;;10188675;29;20254;-79
2023/06/02 02:41:08;;;;;;;8.57;5.57;;;13.40;99.90;;;;;;10188642;29;20290;-79
2023/06/02 02:46:11;;;;;;;9.85;4.38;;;13.40;99.90;;;;;;10188502;29;20239;-79
2023/06/02 02:51:13;;;;;;;8.45;4.55;;;13.70;99.90;;;;;;10188191;29;20250;-79
2023/06/02 02:56:16;;;;;;;4.43;3.40;;;13.80;99.90;;;;;;10187894;29;20305;-80
2023/06/02 03:01:19;;;;;;;10.02;4.30;;;13.70;99.90;;;;;;10188512;29;20314;-80
2023/06/02 03:06:22;;;;;;;8.55;3.97;;;14.00;99.90;;;;;;10213236;29;20247;-80
2023/06/02 03:11:25;;;;;;;8.48;4.55;;;14.10;99.90;;;;;;10195316;29;20297;-80
2023/06/02 03:16:29;;;;;;;9.38;4.25;;;14.30;99.90;;;;;;10195059;29;20242;-80
2023/06/02 03:21:41;;;;;;;12.65;5.30;;;14.50;99.90;;;;;;10195001;29;20810;-80
2023/06/02 03:26:46;;;;;;;9.80;5.07;;;14.40;99.90;;;;;;10195153;29;20795;-80
2023/06/02 03:31:53;;;;;;;9.15;3.97;;;14.50;99.90;;;;;;10195219;29;20275;-80
2023/06/02 03:37:01;;;;;;;10.15;5.22;;;14.40;99.90;;;;;;10212651;29;20329;-80
2023/06/02 03:42:05;;;;;;;7.05;4.75;;;14.60;99.90;;;;;;10194937;29;20273;-80
2023/06/02 03:47:10;;;;;;;7.97;4.75;;;;;;;;;;10194802;29;20439;-80
2023/06/02 03:52:13;;;;;;;12.35;5.47;;;;;;;;;;10194612;29;20306;-80
2023/06/02 03:57:15;;;;;;;5.82;3.65;;;15.10;99.90;;;;;;10194295;29;20246;-80
2023/06/02 04:02:18;;;;;;;10.90;5.70;;;15.10;99.90;;;;;;10174022;29;20796;-80
2023/06/02 04:07:22;;;;;;;19.85;6.07;;;14.90;99.90;;;;;;10196854;29;20274;-80
2023/06/02 04:12:24;;;;;;;8.18;4.45;;;15.00;99.90;;;;;;10175251;29;20270;-80
2023/06/02 04:17:27;;;;;;;10.30;6.15;;;14.90;99.90;;;;;;10164323;29;20560;-80
2023/06/02 04:22:30;;;;;;;8.68;4.03;;;14.90;99.90;;;;;;10173506;29;20258;-80
2023/06/02 04:27:32;;;;;;;7.60;5.65;;;15.00;99.90;;;;;;10193100;29;20297;-80
2023/06/02 04:32:36;;;;;;;7.05;4.57;;;15.10;99.90;;;;;;10191955;29;20243;-80
2023/06/02 04:37:43;;;;;;;6.53;4.07;;;15.10;99.90;;;;;;10209100;29;20304;-80
2023/06/02 04:42:47;;;;;;;5.38;3.83;;;15.20;99.90;;;;;;10191594;29;20333;-80
2023/06/02 04:47:50;;;;;;;12.25;6.43;;;15.30;99.90;;;;;;10176648;29;20243;-80
2023/06/02 04:52:53;;;;;;;8.38;4.82;;;15.20;99.80;;;;;;10191158;29;20251;-80
2023/06/02 04:57:56;;;;;;;14.15;5.53;;;15.10;99.90;;;;;;10191780;29;20701;-81
2023/06/02 05:02:59;;;;;;;10.25;6.22;;;15.00;99.90;;;;;;10191022;29;20297;-80
2023/06/02 05:08:04;;;;;;;9.40;4.90;;;15.00;99.90;;;;;;10205740;29;20242;-80
2023/06/02 05:13:07;;;;;;;9.63;6.22;;;14.90;99.90;;;;;;10188024;29;20293;-80
2023/06/02 05:18:25;;;;;;;4.72;3.78;;;15.00;99.90;;;;;;10187974;29;20682;-81
2023/06/02 05:23:36;;;;;;;13.98;6.18;;;15.00;99.90;;;;;;10190919;29;20265;-80
2023/06/02 05:28:40;;;;;;;9.25;5.35;;;15.00;99.90;;;;;;10185840;29;20369;-80
2023/06/02 05:33:43;;;;;;;14.13;5.75;;;15.00;99.90;;;;;;10190186;29;20247;-80
2023/06/02 05:38:46;;;;;;;11.35;5.60;;;15.10;99.90;;;;;;10189265;29;20251;-80
2023/06/02 05:43:49;;;;;;;10.30;4.25;;;15.50;99.90;;;;;;10174890;29;20325;-80
2023/06/02 05:48:52;;;;;;;13.77;6.53;;;15.60;98.90;;;;;;10188389;29;20313;-80
2023/06/02 05:53:55;;;;;;;8.18;5.22;;;15.50;98.60;;;;;;10202169;29;20250;-80
2023/06/02 05:58:58;;;;;;;8.65;5.68;;;15.40;99.00;;;;;;10190372;29;20298;-79
2023/06/02 06:04:03;;;;;;;9.10;6.03;;;15.30;99.10;;;;;;10190863;29;20269;-80
2023/06/02 06:09:06;;;;;;;6.45;4.78;;;15.30;99.80;;;;;;10205462;29;20635;-79
2023/06/02 06:14:09;;;;;;;8.48;4.80;;;15.10;99.90;;;;;;10199814;29;20291;-80
2023/06/02 06:19:14;;;;;;;5.88;3.78;;;14.90;99.90;;;;;;10188866;29;20298;-80
2023/06/02 06:24:17;;;;;;;8.02;3.33;;;14.90;99.90;;;;;;10189337;29;20262;-79
2023/06/02 06:29:19;;;;;;;4.47;3.03;;;14.60;99.90;;;;;;10185867;29;20246;-80
2023/06/02 06:34:22;;;;;;;5.75;3.38;;;14.30;99.90;;;;;;10188862;29;20223;-80
2023/06/02 06:39:25;;;;;;;5.13;2.75;;;14.40;99.90;;;;;;10194047;29;20262;-80
2023/06/02 06:44:28;;;;;;;7.97;3.65;;;14.50;99.90;;;;;;10197686;29;20262;-81
2023/06/02 06:49:31;;;;;;;6.80;3.22;;;14.80;99.90;;;;;;10196661;29;20242;-81
2023/06/02 06:54:34;;;;;;;7.35;2.55;;;14.90;99.90;;;;;;10198308;29;20243;-81
2023/06/02 06:59:45;;;;;;;6.53;2.50;;;15.10;99.90;;;;;;10174370;29;20630;-82
2023/06/02 07:04:50;;;;;;;3.50;2.45;;;15.20;98.80;;;;;;10191772;29;20315;-81
2023/06/02 07:09:53;;;;;;;4.63;2.72;;;15.40;97.00;;;;;;10177980;29;20247;-82
2023/06/02 07:14:56;;;;;;;4.45;2.22;;;15.60;95.50;;;;;;10193341;29;20235;-81
2023/06/02 07:19:58;;;;;;;2.53;1.60;;;15.70;94.00;;;;;;10173574;29;20243;-81
2023/06/02 07:25:03;;;;;;;6.47;2.33;;;16.00;92.60;;;;;;10176373;29;20259;-80
2023/06/02 07:30:07;;;;;;;4.30;2.28;;;16.20;92.80;;;;;;10185996;29;20300;-81
2023/06/02 07:35:10;;;;;;;6.43;2.95;;;16.20;92.20;;;;;;10177495;29;20369;-81
2023/06/02 07:40:12;;;;;;;6.28;1.85;;;16.60;92.50;;;;;;10194992;29;20266;-81
2023/06/02 07:45:15;;;;;;;5.53;2.55;;;16.50;87.50;;;;;;10212438;29;20294;-82
2023/06/02 07:50:18;;;;;;;7.30;2.28;;;16.80;90.50;;;;;;10194357;29;20242;-81
2023/06/02 07:55:21;;;;;;;4.07;2.67;;;17.00;79.70;;;;;;10212021;29;20309;-82
2023/06/02 08:00:24;;;;;;;5.28;2.00;;;17.00;89.30;;;;;;10188108;29;20212;-82
2023/06/02 08:05:27;;;;;;;3.03;1.52;;;17.20;81.90;;;;;;10181562;29;20310;-82
2023/06/02 08:10:30;;;;;;;4.28;1.55;;;17.50;81.70;;;;;;10211761;29;20238;-82
2023/06/02 08:15:32;;;;;;;5.40;2.20;;;17.70;78.70;;;;;;10194663;29;20810;-81
2023/06/02 08:20:35;;;;;;;5.00;2.08;;;17.90;77.00;;;;;;10210875;29;20243;-81
2023/06/02 08:25:39;;;;;;;2.47;1.63;;;17.90;72.50;;;;;;10209811;29;20297;-79
2023/06/02 08:30:46;;;;;;;5.72;1.65;;;17.70;67.30;;;;;;10191866;29;20291;-80
2023/06/02 08:35:51;;;;;;;3.83;2.42;;;17.40;55.60;;;;;;10210133;29;20681;-80
2023/06/02 08:40:54;;;;;;;2.53;1.77;;;17.30;66.30;;;;;;10209736;29;20286;-80
2023/06/02 08:46:00;;;;;;;4.15;1.20;;;17.30;61.60;;;;;;10208660;29;20235;-80
2023/06/02 08:51:08;;;;;;;3.10;1.50;;;17.70;62.60;;;;;;10208020;29;20267;-80
2023/06/02 08:56:10;;;;;;;3.40;1.67;;;17.90;65.40;;;;;;10208625;29;20310;-80
2023/06/02 09:01:13;;;;;;;5.78;1.98;;;18.30;67.90;;;;;;10183339;29;20250;-80
2023/06/02 09:06:26;;;;;;;4.63;1.60;;;18.60;55.80;;;;;;10203393;29;20302;-79
2023/06/02 09:11:32;;;;;;;1.42;0.98;;;17.70;45.20;;;;;;10191890;29;20294;-79
2023/06/02 09:16:37;;;;;;;3.40;1.02;;;17.00;52.10;;;;;;10207142;29;20262;-79
2023/06/02 09:21:41;;;;;;;5.75;1.45;;;17.10;48.10;;;;;;10208744;29;20266;-80
2023/06/02 09:26:51;;;;;;;2.03;1.17;;;17.60;45.30;;;;;;10208606;29;20298;-80
2023/06/02 09:31:55;;;;;;;4.25;1.35;;;18.20;43.60;;;;;;10190921;29;20286;-80
2023/06/02 09:37:10;;;;;;;5.28;1.40;;;18.30;38.80;;;;;;10208518;29;20298;-80
2023/06/02 09:42:14;;;;;;;4.55;1.30;;;18.40;41.30;;;;;;10208006;29;20723;-80
2023/06/02 09:47:22;;;;;;;3.53;1.23;;;18.60;38.50;;;;;;10207633;29;20388;-80
2023/06/02 09:52:26;;;;;;;6.50;1.20;;;18.50;34.60;;;;;;10208132;29;20250;-80
2023/06/02 09:57:30;;;;;;;2.58;1.33;;;18.40;40.00;;;;;;10191406;29;20688;-80
2023/06/02 10:02:33;;;;;;;3.13;1.15;;;18.90;38.90;;;;;;10190984;29;20262;-80
2023/06/02 10:08:09;;;;;;;2.53;1.13;;;18.60;36.10;;;;;;10206891;29;20302;-80
2023/06/02 10:13:24;;;;;;;7.00;1.02;;;19.00;36.70;;;;;;10179957;29;20246;-81
2023/06/02 10:18:45;;;;;;;2.97;1.45;;;19.40;37.00;;;;;;10202656;29;20278;-81
2023/06/02 10:24:12;;;;;;;6.30;1.77;;;18.40;30.30;;;;;;10198321;29;20289;-80
2023/06/02 10:29:16;;;;;;;3.33;1.20;;;17.80;34.50;;;;;;10220303;29;20238;-80
2023/06/02 10:34:47;;;;;;;3.72;1.15;;;18.20;35.40;;;;;;10220210;29;20628;-80
2023/06/02 10:39:52;;;;;;;10.07;2.55;;;18.20;39.20;;;;;;10218673;29;20274;-80
2023/06/02 10:45:26;;;;;;;3.08;1.25;;;18.30;35.70;;;;;;10220283;29;20262;-79
2023/06/02 10:50:52;;;;;;;3.28;1.30;;;18.30;33.40;;;;;;10220625;29;20242;-79
2023/06/02 10:55:55;;;;;;;4.43;1.00;;;18.20;30.60;;;;;;10220040;29;20700;-80
2023/06/02 11:00:57;;;;;;;2.33;1.08;;;18.20;31.60;;;;;;10219542;29;20302;-80
2023/06/02 11:06:20;;;;;;;2.35;1.02;;;18.00;37.00;;;;;;10219066;29;20290;-79
2023/06/02 11:11:51;;;;;;;1.40;0.57;;;18.50;38.50;;;;;;10220000;29;20661;-80
2023/06/02 11:17:31;;;;;;;5.60;1.08;;;18.40;33.00;;;;;;10218501;29;20266;-80
2023/06/02 11:22:36;;;;;;;3.33;1.40;;;18.80;31.30;;;;;;10201031;29;20412;-79
2023/06/02 11:27:41;;;;;;;8.90;1.25;;;18.80;26.10;;;;;;10181749;29;20680;-80
2023/06/02 11:32:49;;;;;;;1.38;0.68;;;18.60;33.20;;;;;;10185424;29;20903;-81
2023/06/02 11:38:07;;;;;;;1.50;1.00;;;18.60;25.80;;;;;;10168208;29;20265;-80
2023/06/02 11:43:20;;;;;;;3.83;1.08;;;18.50;23.30;;;;;;10209130;29;20270;-81
2023/06/02 11:48:25;;;;;;;5.32;1.60;;;18.80;24.70;;;;;;10194719;29;20313;-81
2023/06/02 11:53:28;;;;;;;1.83;0.93;;;19.10;23.40;;;;;;10191872;29;20274;-82
2023/06/02 11:58:31;;;;;;;9.73;1.20;;;19.20;23.50;;;;;;10211195;29;20270;-83
2023/06/02 12:03:34;;;;;;;2.00;1.50;;;19.40;23.60;;;;;;10210530;29;20691;-82
2023/06/02 12:08:37;;;;;;;2.28;0.95;;;19.50;18.60;;;;;;10194896;29;20262;-82
2023/06/02 12:13:40;;;;;;;7.70;1.13;;;19.60;22.80;;;;;;10195055;29;20643;-82
2023/06/02 12:18:42;;;;;;;3.83;1.05;;;19.50;14.90;;;;;;10187946;29;20258;-82
2023/06/02 12:23:45;;;;;;;6.65;1.15;;;19.50;16.60;;;;;;10154847;29;20266;-82
2023/06/02 12:28:50;;;;;;;1.48;0.80;;;19.70;22.50;;;;;;10172075;29;20248;-81
2023/06/02 12:33:52;;;;;;;1.30;0.80;;;19.90;25.70;;;;;;10192489;29;20687;-81
2023/06/02 12:38:56;;;;;;;2.70;1.13;;;20.00;24.10;;;;;;10208051;29;20242;-82
2023/06/02 12:43:59;;;;;;;1.40;0.82;;;;;;;;;;10209732;29;20681;-82
2023/06/02 12:49:03;;;;;;;2.75;0.90;;;;;;;;;;10206103;29;20246;-82
2023/06/02 12:54:05;;;;;;;6.97;1.08;;;19.60;11.70;;;;;;10204411;29;20262;-82
2023/06/02 12:59:10;;;;;;;1.70;0.80;;;19.70;13.40;;;;;;10188774;29;20298;-82
2023/06/02 13:04:13;;;;;;;5.18;1.17;;;19.80;19.90;;;;;;10206537;29;20667;-81
2023/06/02 13:09:16;;;;;;;1.25;0.52;;;19.90;11.90;;;;;;10189187;29;21055;-82
2023/06/02 13:14:18;;;;;;;3.65;0.82;;;19.80;12.90;;;;;;10206975;29;20235;-82
2023/06/02 13:19:21;;;;;;;1.92;0.52;;;20.00;16.10;;;;;;10189489;29;20302;-83
2023/06/02 13:24:23;;;;;;;2.47;0.63;;;20.10;11.80;;;;;;10187513;29;20671;-83
2023/06/02 13:29:26;;;;;;;6.38;1.17;;;20.20;18.50;;;;;;10184294;29;20634;-81
2023/06/02 13:34:32;;;;;;;2.70;0.95;;;20.30;13.70;;;;;;10205857;29;20242;-81
2023/06/02 13:39:37;;;;;;;2.78;0.82;;;20.40;15.70;;;;;;10186821;29;20270;-81
2023/06/02 13:44:39;;;;;;;0.70;0.50;;;20.40;7.20;;;;;;10200476;29;20334;-82
2023/06/02 13:49:44;;;;;;;2.53;0.82;;;20.30;11.40;;;;;;10186246;29;20251;-81
2023/06/02 13:54:47;;;;;;;1.38;0.40;;;20.50;14.60;;;;;;10189387;29;20704;-81
2023/06/02 13:59:50;;;;;;;2.50;0.60;;;20.10;6.20;;;;;;10198266;29;20255;-81
2023/06/02 14:04:52;;;;;;;2.38;0.57;;;20.20;11.00;;;;;;10191987;29;20648;-83
2023/06/02 14:09:54;;;;;;;2.50;0.77;;;20.20;12.90;;;;;;10190021;29;20270;-82
2023/06/02 14:14:57;;;;;;;6.68;1.20;;;20.30;10.70;;;;;;10206777;29;20242;-80
2023/06/02 14:20:00;;;;;;;2.58;0.60;;;20.30;14.30;;;;;;10205715;29;20625;-82
2023/06/02 14:25:03;;;;;;;1.70;0.52;;;20.40;16.10;;;;;;10206445;29;20637;-82
2023/06/02 14:30:08;;;;;;;2.20;0.80;;;20.40;14.50;;;;;;10206626;29;20270;-81
2023/06/02 14:35:11;;;;;;;5.55;0.90;;;20.40;15.60;;;;;;10188953;29;20700;-81
2023/06/02 14:40:14;;;;;;;1.13;0.57;;;20.30;7.40;;;;;;10206350;29;20254;-81
2023/06/02 14:45:16;;;;;;;1.75;0.65;;;20.40;4.30;;;;;;9862362;29;9999990;-81
2023/06/02 14:50:19;;;;;;;2.15;0.77;;;20.40;13.20;;;;;;10202068;29;20259;-81
2023/06/02 14:55:21;;;;;;;0.80;0.60;;;20.50;15.40;;;;;;10202219;29;20254;-81
2023/06/02 15:00:24;;;;;;;3.80;0.60;;;20.50;14.70;;;;;;10206692;29;20235;-80
2023/06/02 15:05:27;;;;;;;4.80;0.65;;;20.50;6.00;;;;;;10209232;29;20317;-82
2023/06/02 15:10:30;;;;;;;1.90;0.50;;;20.40;2.70;;;;;;10211012;29;20306;-82
2023/06/02 15:15:33;;;;;;;2.03;0.75;;;20.40;11.90;;;;;;10209059;29;20274;-82
2023/06/02 15:20:36;;;;;;;0.90;0.60;;;20.60;16.10;;;;;;10209643;29;20649;-82
2023/06/02 15:25:38;;;;;;;1.65;0.50;;;20.60;14.90;;;;;;10155939;29;20277;-81
2023/06/02 15:30:41;;;;;;;3.05;0.50;;;20.60;15.90;;;;;;10209141;29;20235;-81
2023/06/02 15:35:43;;;;;;;0.95;0.60;;;20.50;12.70;;;;;;10192026;29;20239;-81
2023/06/02 15:40:46;;;;;;;2.05;0.43;;;20.60;9.00;;;;;;10206888;29;20266;-82
2023/06/02 15:45:49;;;;;;;4.53;0.50;;;20.50;7.10;;;;;;10235527;29;20767;-81
2023/06/02 15:50:51;;;;;;;0.82;0.40;;;20.50;19.20;;;;;;10208646;29;20246;-81
2023/06/02 15:55:54;;;;;;;1.67;0.60;;;20.50;12.80;;;;;;10209152;29;20243;-81
2023/06/02 16:00:57;;;;;;;0.35;0.28;;;20.50;13.30;;;;;;10191524;29;20255;-81
2023/06/02 16:05:59;;;;;;;1.05;0.40;;;20.40;10.20;;;;;;10207553;29;20369;-81
2023/06/02 16:11:03;;;;;;;2.05;0.65;;;20.30;17.70;;;;;;10209344;29;20274;-81
2023/06/02 16:16:06;;;;;;;2.33;0.30;;;20.40;9.70;;;;;;10166616;29;20242;-81
2023/06/02 16:21:09;;;;;;;1.50;0.50;;;20.40;7.60;;;;;;10208124;29;20246;-81
2023/06/02 16:26:15;;;;;;;0.65;0.20;;;20.40;11.00;;;;;;10209849;29;20266;-80
2023/06/02 16:31:18;;;;;;;1.38;0.47;;;20.50;3.40;;;;;;10210261;29;20679;-80
2023/06/02 16:36:23;;;;;;;3.08;0.30;;;20.80;6.20;;;;;;10193918;29;20302;-80
2023/06/02 16:41:26;;;;;;;2.45;0.57;;;20.70;1.60;;;;;;10209601;29;20278;-80
2023/06/02 16:46:28;;;;;;;2.17;0.60;;;20.60;6.90;;;;;;10209676;29;20263;-80
2023/06/02 16:51:31;;;;;;;1.95;0.40;;;20.50;1.70;;;;;;10192647;29;20680;-80
2023/06/02 16:56:34;;;;;;;2.58;0.57;;;20.40;4.10;;;;;;10209417;29;20282;-80
2023/06/02 17:01:36;;;;;;;3.30;0.90;;;20.30;6.60;;;;;;10209185;29;20246;-80
2023/06/02 17:06:39;;;;;;;0.63;0.50;;;20.20;3.30;;;;;;10207043;29;20930;-80
2023/06/02 17:11:42;;;;;;;0.65;0.40;;;20.00;4.50;;;;;;10207262;29;20297;-80
2023/06/02 17:16:44;;;;;;;1.13;0.50;;;20.10;6.20;;;;;;10208918;29;20795;-80
2023/06/02 17:21:47;;;;;;;3.63;0.50;;;19.90;4.40;;;;;;10190428;29;20219;-80
2023/06/02 17:26:50;;;;;;;9.43;0.68;;;19.70;3.70;;;;;;10190794;29;20346;-80
2023/06/02 17:31:52;;;;;;;3.95;0.50;;;19.60;6.70;;;;;;10208011;29;20279;-80
2023/06/02 17:36:55;;;;;;;0.68;0.50;;;19.40;4.90;;;;;;10190574;29;20388;-81
2023/06/02 17:41:58;;;;;;;0.80;0.52;;;19.20;9.70;;;;;;10207558;29;20310;-80
2023/06/02 17:47:00;;;;;;;1.23;0.40;;;19.10;10.10;;;;;;10205252;29;20329;-80
2023/06/02 17:52:04;;;;;;;2.35;0.70;;;18.70;5.10;;;;;;10188803;29;20238;-81
2023/06/02 17:57:10;;;;;;;1.58;0.50;;;18.80;8.50;;;;;;10206342;29;20254;-81
2023/06/02 18:02:12;;;;;;;6.18;0.55;;;18.50;7.90;;;;;;10207049;29;20246;-83
2023/06/02 18:07:15;;;;;;;3.42;0.80;;;18.10;9.80;;;;;;10188038;29;20322;-82
2023/06/02 18:12:18;;;;;;;2.45;0.68;;;17.80;9.00;;;;;;10189313;29;20242;-81
2023/06/02 18:17:20;;;;;;;4.97;1.02;;;17.30;9.30;;;;;;10200764;29;21005;-86
2023/06/02 18:22:23;;;;;;;6.20;0.85;;;17.10;12.00;;;;;;10190240;29;20250;-85
2023/06/02 18:27:26;;;;;;;5.90;0.70;;;17.10;11.20;;;;;;10205637;29;20262;-85
2023/06/02 18:32:28;;;;;;;6.35;0.88;;;16.30;9.40;;;;;;10205770;29;20270;-85
2023/06/02 18:37:31;;;;;;;7.38;0.80;;;15.70;12.10;;;;;;10210086;29;20744;-86
2023/06/02 18:42:34;;;;;;;8.63;0.80;;;15.40;11.30;;;;;;10197612;29;20321;-84
2023/06/02 18:47:37;;;;;;;5.03;0.73;;;15.10;11.90;;;;;;10196295;29;20312;-85
2023/06/02 18:52:39;;;;;;;3.03;0.50;;;14.50;13.30;;;;;;10213705;29;20250;-85
2023/06/02 18:57:42;;;;;;;10.00;0.75;;;14.20;14.20;;;;;;10213240;29;20250;-85
2023/06/02 19:02:45;;;;;;;3.95;0.80;;;;;;;;;;10212863;29;20313;-84
2023/06/02 19:07:47;;;;;;;3.85;0.75;;;13.30;16.40;;;;;;10195103;29;20270;-86
2023/06/02 19:12:50;;;;;;;0.75;0.50;;;13.00;17.30;;;;;;10194828;29;20302;-82
2023/06/02 19:17:53;;;;;;;2.13;0.90;;;13.30;22.00;;;;;;10208755;29;20306;-82
2023/06/02 19:22:56;;;;;;;3.67;1.02;;;12.20;20.10;;;;;;10211883;29;20755;-82
2023/06/02 19:27:58;;;;;;;4.03;0.80;;;12.10;21.00;;;;;;10194845;29;20266;-83
2023/06/02 19:33:01;;;;;;;5.32;0.75;;;11.60;49.30;;;;;;10194645;29;20622;-84
2023/06/02 19:38:04;;;;;;;4.82;1.10;;;11.50;32.10;;;;;;10194344;29;20282;-82
2023/06/02 19:43:06;;;;;;;7.60;1.30;;;11.10;29.30;;;;;;9868271;29;9999868;-82
2023/06/02 19:48:09;;;;;;;8.93;1.37;;;10.50;28.10;;;;;;10206571;29;20255;-81
2023/06/02 19:53:12;;;;;;;3.53;1.23;;;10.30;30.40;;;;;;10172771;29;20239;-81
2023/06/02 19:58:15;;;;;;;3.57;1.43;;;10.10;34.50;;;;;;10187976;29;20247;-82
2023/06/02 20:03:18;;;;;;;3.03;1.53;;;9.80;37.50;;;;;;10190845;29;20901;-82
2023/06/02 20:08:20;;;;;;;3.13;1.20;;;9.60;39.20;;;;;;10207712;29;20332;-82
2023/06/02 20:13:25;;;;;;;3.43;1.53;;;9.60;40.70;;;;;;10205487;29;20234;-82
2023/06/02 20:18:28;;;;;;;2.57;1.40;;;9.50;41.80;;;;;;10189984;29;20315;-82
2023/06/02 20:23:30;;;;;;;7.23;2.10;;;9.40;44.80;;;;;;10209000;29;20367;-81
2023/06/02 20:28:33;;;;;;;7.10;1.97;;;9.30;44.40;;;;;;10186498;29;20250;-82
2023/06/02 20:33:35;;;;;;;4.67;1.80;;;9.20;46.00;;;;;;10206053;29;20293;-82
2023/06/02 20:38:43;;;;;;;6.47;1.90;;;9.10;50.40;;;;;;10206102;29;20239;-81
2023/06/02 20:43:45;;;;;;;6.60;1.77;;;9.00;52.30;;;;;;10188035;29;20243;-82
2023/06/02 20:48:48;;;;;;;5.27;2.20;;;8.80;54.90;;;;;;10205289;29;20242;-82
2023/06/02 20:53:50;;;;;;;3.77;2.63;;;8.70;58.10;;;;;;10206652;29;20243;-82
2023/06/02 20:58:53;;;;;;;7.90;2.53;;;8.60;60.70;;;;;;10205679;29;20294;-81
2023/06/02 21:03:55;;;;;;;2.23;1.27;;;8.50;66.90;;;;;;10205627;29;20322;-80
2023/06/02 21:08:58;;;;;;;4.13;1.57;;;9.30;99.90;;;;;;10200360;29;20236;-80
2023/06/02 21:14:01;;;;;;;2.47;1.30;;;9.60;99.90;;;;;;10187288;29;20242;-81
2023/06/02 21:19:05;;;;;;;4.82;1.50;;;10.00;99.90;;;;;;10208154;29;20629;-83
2023/06/02 21:24:08;;;;;;;4.32;2.20;;;10.30;99.90;;;;;;10189671;29;20266;-82
2023/06/02 21:29:10;;;;;;;3.22;1.63;;;10.40;99.90;;;;;;10187985;29;20238;-81
2023/06/02 21:34:13;;;;;;;1.90;1.17;;;10.50;98.80;;;;;;10208930;29;20251;-81
2023/06/02 21:39:15;;;;;;;14.63;2.70;;;10.50;97.20;;;;;;10208048;29;20266;-81
2023/06/02 21:44:18;;;;;;;7.57;2.58;;;10.40;95.20;;;;;;10189931;29;20325;-82
2023/06/02 21:49:21;;;;;;;3.67;1.52;;;10.40;92.10;;;;;;10207971;29;20644;-82
2023/06/02 21:54:23;;;;;;;3.85;1.40;;;10.20;92.50;;;;;;10207058;29;20319;-82
2023/06/02 21:59:26;;;;;;;7.55;1.55;;;10.20;91.20;;;;;;10191154;29;20680;-82
2023/06/02 22:04:28;;;;;;;6.90;1.98;;;10.50;94.80;;;;;;10207873;29;20265;-81
2023/06/02 22:09:31;;;;;;;3.17;1.30;;;10.50;89.80;;;;;;10205782;29;20246;-82
2023/06/02 22:14:33;;;;;;;1.83;0.88;;;10.50;89.00;;;;;;10190284;29;20619;-81
2023/06/02 22:19:36;;;;;;;1.38;0.63;;;10.60;91.30;;;;;;10206423;29;20246;-82
2023/06/02 22:24:39;;;;;;;2.15;1.00;;;10.80;93.00;;;;;;10189178;29;20679;-82
2023/06/02 22:29:41;;;;;;;2.22;0.98;;;11.10;91.60;;;;;;10189486;29;20246;-82
2023/06/02 22:34:44;;;;;;;2.40;1.10;;;11.00;90.00;;;;;;10206754;29;20293;-82
2023/06/02 22:39:46;;;;;;;0.90;0.50;;;11.00;90.10;;;;;;10205786;29;20274;-81
2023/06/02 22:44:49;;;;;;;2.10;1.35;;;10.90;91.60;;;;;;10205190;29;20285;-81
2023/06/02 22:49:52;;;;;;;3.45;1.05;;;10.80;88.50;;;;;;10205873;29;20322;-82
2023/06/02 22:54:55;;;;;;;2.08;0.73;;;10.80;90.30;;;;;;10205599;29;20642;-81
2023/06/02 22:59:57;;;;;;;1.52;0.90;;;10.80;90.90;;;;;;10205971;29;20318;-82
2023/06/02 23:05:00;;;;;;;1.35;0.80;;;10.90;90.60;;;;;;10188914;29;20325;-81
2023/06/02 23:10:03;;;;;;;1.10;0.70;;;10.80;88.20;;;;;;10205563;29;20302;-81
2023/06/02 23:15:06;;;;;;;2.60;1.10;;;10.40;86.20;;;;;;10189419;29;20215;-81
2023/06/02 23:20:09;;;;;;;3.25;1.33;;;10.30;89.10;;;;;;10208007;29;20654;-81
2023/06/02 23:25:12;;;;;;;1.48;0.60;;;10.30;90.30;;;;;;10195475;29;20625;-81
2023/06/02 23:30:15;;;;;;;2.20;1.13;;;10.20;93.10;;;;;;10212020;29;20662;-81
2023/06/02 23:35:18;;;;;;;1.20;0.68;;;10.00;92.70;;;;;;10211230;29;20763;-82
2023/06/02 23:40:21;;;;;;;5.95;1.40;;;10.10;91.80;;;;;;10211844;29;20254;-82
2023/06/02 23:45:23;;;;;;;3.70;0.93;;;10.00;90.90;;;;;;10211462;29;20262;-81
2023/06/02 23:50:26;;;;;;;3.60;0.98;;;9.60;91.60;;;;;;10195498;29;20242;-81
2023/06/02 23:55:28;;;;;;;1.73;1.40;;;9.20;90.50;;;;;;10212173;29;20250;-81
